Terminal Aerodrome Forecast
Issued by NWS Austin/San Antonio, TX

Home | Current Version | Previous Version | Text Only | Print | Product List | Glossary On
Versions: 1 2 3 4 5 6 7 8 9 10 11 12 13 14 15 16 17 18 19 20 21 22 23 24 25 26
000
FTUS44 KEWX 211400 AAA
TAFSAT
TAF AMD
KSAT 211413Z 2114/2218 14003KT P6SM SCT008 OVC012
      TEMPO 2114/2116 3SM BR BKN008
     FM211600 19005KT P6SM OVC015
     FM211800 20006KT P6SM BKN025
     FM220700 19006KT 6SM BR OVC012
     FM221100 21005KT 4SM BR BKN007 OVC012
     FM221700 21010KT P6SM BKN025=

USA.gov is the U.S. government's official web portal to all federal, state and local government web resources and services.